sensor_id;sensor_type;location;lat;lon;timestamp;pressure;altitude;pressure_sealevel;temperature;humidity
80102;BME280;69407;44.966;19.622;2024-01-07T00:01:29;99148.75;;;8.14;100.00
80102;BME280;69407;44.966;19.622;2024-01-07T00:03:55;99150.63;;;8.12;100.00
80102;BME280;69407;44.966;19.622;2024-01-07T00:06:20;99144.34;;;8.14;100.00
80102;BME280;69407;44.966;19.622;2024-01-07T00:08:46;99147.22;;;8.10;100.00
80102;BME280;69407;44.966;19.622;2024-01-07T00:11:12;99142.78;;;8.10;100.00
80102;BME280;69407;44.966;19.622;2024-01-07T00:13:38;99136.56;;;7.97;100.00
80102;BME280;69407;44.966;19.622;2024-01-07T00:16:04;99139.19;;;7.97;100.00
80102;BME280;69407;44.966;19.622;2024-01-07T00:18:29;99141.06;;;7.95;100.00
80102;BME280;69407;44.966;19.622;2024-01-07T00:20:55;99133.19;;;7.95;100.00
80102;BME280;69407;44.966;19.622;2024-01-07T00:23:20;99136.94;;;7.91;100.00
80102;BME280;69407;44.966;19.622;2024-01-07T00:25:47;99143.38;;;7.85;100.00
80102;BME280;69407;44.966;19.622;2024-01-07T00:28:12;99149.13;;;7.78;100.00
80102;BME280;69407;44.966;19.622;2024-01-07T00:30:38;99138.97;;;7.86;100.00
80102;BME280;69407;44.966;19.622;2024-01-07T00:33:03;99127.28;;;7.91;100.00
80102;BME280;69407;44.966;19.622;2024-01-07T00:35:29;99129.50;;;7.83;100.00
80102;BME280;69407;44.966;19.622;2024-01-07T00:37:54;99141.25;;;7.92;100.00
80102;BME280;69407;44.966;19.622;2024-01-07T00:40:22;99144.19;;;7.87;100.00
80102;BME280;69407;44.966;19.622;2024-01-07T00:42:48;99135.34;;;7.88;100.00
80102;BME280;69407;44.966;19.622;2024-01-07T00:45:13;99139.38;;;7.94;100.00
80102;BME280;69407;44.966;19.622;2024-01-07T00:47:39;99140.31;;;7.93;100.00
80102;BME280;69407;44.966;19.622;2024-01-07T00:50:04;99137.03;;;7.89;100.00
80102;BME280;69407;44.966;19.622;2024-01-07T00:52:30;99130.16;;;7.87;100.00
80102;BME280;69407;44.966;19.622;2024-01-07T00:54:55;99133.66;;;7.87;100.00
80102;BME280;69407;44.966;19.622;2024-01-07T00:57:22;99122.44;;;7.84;100.00
80102;BME280;69407;44.966;19.622;2024-01-07T00:59:47;99122.00;;;7.91;100.00
80102;BME280;69407;44.966;19.622;2024-01-07T01:02:13;99128.25;;;8.05;100.00
80102;BME280;69407;44.966;19.622;2024-01-07T01:04:39;99128.25;;;8.05;100.00
80102;BME280;69407;44.966;19.622;2024-01-07T01:07:05;99123.09;;;8.17;100.00
80102;BME280;69407;44.966;19.622;2024-01-07T01:09:31;99115.53;;;8.11;100.00
80102;BME280;69407;44.966;19.622;2024-01-07T01:11:56;99119.59;;;8.03;100.00
80102;BME280;69407;44.966;19.622;2024-01-07T01:14:22;99121.59;;;8.13;100.00
80102;BME280;69407;44.966;19.622;2024-01-07T01:16:47;99114.16;;;8.06;100.00
80102;BME280;69407;44.966;19.622;2024-01-07T01:19:12;99116.47;;;8.10;100.00
80102;BME280;69407;44.966;19.622;2024-01-07T01:21:38;99114.97;;;8.06;100.00
80102;BME280;69407;44.966;19.622;2024-01-07T01:24:04;99113.94;;;8.09;100.00
80102;BME280;69407;44.966;19.622;2024-01-07T01:26:29;99111.50;;;8.06;100.00
80102;BME280;69407;44.966;19.622;2024-01-07T01:28:55;99109.63;;;8.08;100.00
80102;BME280;69407;44.966;19.622;2024-01-07T01:31:20;99112.25;;;8.08;100.00
80102;BME280;69407;44.966;19.622;2024-01-07T01:33:46;99109.38;;;8.12;100.00
80102;BME280;69407;44.966;19.622;2024-01-07T01:36:11;99105.22;;;8.08;100.00
80102;BME280;69407;44.966;19.622;2024-01-07T01:38:36;99104.38;;;8.08;100.00
80102;BME280;69407;44.966;19.622;2024-01-07T01:41:02;99100.78;;;8.09;100.00
80102;BME280;69407;44.966;19.622;2024-01-07T01:43:28;99099.84;;;8.10;100.00
80102;BME280;69407;44.966;19.622;2024-01-07T01:45:55;99077.72;;;8.14;100.00
80102;BME280;69407;44.966;19.622;2024-01-07T01:48:25;99087.47;;;8.12;100.00
80102;BME280;69407;44.966;19.622;2024-01-07T01:50:52;99084.75;;;8.13;100.00
80102;BME280;69407;44.966;19.622;2024-01-07T01:53:19;99081.19;;;8.29;100.00
80102;BME280;69407;44.966;19.622;2024-01-07T01:55:45;99072.44;;;8.28;100.00
80102;BME280;69407;44.966;19.622;2024-01-07T01:58:12;99076.56;;;8.32;100.00
80102;BME280;69407;44.966;19.622;2024-01-07T02:00:39;99072.53;;;8.27;100.00
80102;BME280;69407;44.966;19.622;2024-01-07T02:03:05;99071.94;;;8.37;100.00
80102;BME280;69407;44.966;19.622;2024-01-07T02:05:30;99071.72;;;8.40;100.00
80102;BME280;69407;44.966;19.622;2024-01-07T02:07:56;99070.31;;;8.35;100.00
80102;BME280;69407;44.966;19.622;2024-01-07T02:10:23;99059.97;;;8.46;100.00
80102;BME280;69407;44.966;19.622;2024-01-07T02:12:48;99058.66;;;8.39;100.00
80102;BME280;69407;44.966;19.622;2024-01-07T02:15:14;99063.28;;;8.49;100.00
80102;BME280;69407;44.966;19.622;2024-01-07T02:17:40;99059.97;;;8.46;100.00
80102;BME280;69407;44.966;19.622;2024-01-07T02:20:06;99051.72;;;8.38;100.00
80102;BME280;69407;44.966;19.622;2024-01-07T02:22:32;99058.66;;;8.39;100.00
80102;BME280;69407;44.966;19.622;2024-01-07T02:24:57;99049.72;;;8.41;100.00
80102;BME280;69407;44.966;19.622;2024-01-07T02:27:23;99056.47;;;8.31;100.00
80102;BME280;69407;44.966;19.622;2024-01-07T02:29:48;99058.81;;;8.36;100.00
80102;BME280;69407;44.966;19.622;2024-01-07T02:32:14;99049.03;;;8.23;100.00
80102;BME280;69407;44.966;19.622;2024-01-07T02:34:39;99042.75;;;8.26;100.00
80102;BME280;69407;44.966;19.622;2024-01-07T02:37:05;99061.34;;;8.23;100.00
80102;BME280;69407;44.966;19.622;2024-01-07T02:39:30;99055.16;;;8.24;100.00
80102;BME280;69407;44.966;19.622;2024-01-07T02:41:55;99049.81;;;8.26;100.00
80102;BME280;69407;44.966;19.622;2024-01-07T02:44:21;99046.22;;;8.27;100.00
80102;BME280;69407;44.966;19.622;2024-01-07T02:46:46;99054.22;;;8.25;100.00
80102;BME280;69407;44.966;19.622;2024-01-07T02:49:12;99041.06;;;8.25;100.00
80102;BME280;69407;44.966;19.622;2024-01-07T02:51:38;99045.84;;;8.33;100.00
80102;BME280;69407;44.966;19.622;2024-01-07T02:54:04;99051.00;;;8.20;100.00
80102;BME280;69407;44.966;19.622;2024-01-07T02:56:29;99039.63;;;8.19;100.00
80102;BME280;69407;44.966;19.622;2024-01-07T02:58:55;99048.47;;;8.18;100.00
80102;BME280;69407;44.966;19.622;2024-01-07T03:01:24;99043.31;;;8.17;100.00
80102;BME280;69407;44.966;19.622;2024-01-07T03:03:50;99052.13;;;8.16;100.00
80102;BME280;69407;44.966;19.622;2024-01-07T03:06:16;99049.03;;;8.09;100.00
80102;BME280;69407;44.966;19.622;2024-01-07T03:08:42;99038.03;;;8.17;100.00
80102;BME280;69407;44.966;19.622;2024-01-07T03:11:08;99043.66;;;8.11;100.00
80102;BME280;69407;44.966;19.622;2024-01-07T03:13:34;99042.38;;;8.18;100.00
80102;BME280;69407;44.966;19.622;2024-01-07T03:15:59;99039.72;;;8.18;100.00
80102;BME280;69407;44.966;19.622;2024-01-07T03:18:27;99038.25;;;8.14;100.00
80102;BME280;69407;44.966;19.622;2024-01-07T03:20:53;99040.88;;;8.14;100.00
80102;BME280;69407;44.966;19.622;2024-01-07T03:23:19;99037.84;;;8.20;100.00
80102;BME280;69407;44.966;19.622;2024-01-07T03:25:44;99040.13;;;8.12;100.00
80102;BME280;69407;44.966;19.622;2024-01-07T03:28:10;99029.22;;;8.18;100.00
80102;BME280;69407;44.966;19.622;2024-01-07T03:30:36;99024.13;;;8.15;100.00
80102;BME280;69407;44.966;19.622;2024-01-07T03:33:02;99021.41;;;8.16;100.00
80102;BME280;69407;44.966;19.622;2024-01-07T03:35:27;99028.66;;;8.27;100.00
80102;BME280;69407;44.966;19.622;2024-01-07T03:37:53;99029.75;;;8.23;100.00
80102;BME280;69407;44.966;19.622;2024-01-07T03:40:18;99023.19;;;8.30;100.00
80102;BME280;69407;44.966;19.622;2024-01-07T03:42:44;99013.81;;;8.26;100.00
80102;BME280;69407;44.966;19.622;2024-01-07T03:45:10;99015.00;;;8.20;100.00
80102;BME280;69407;44.966;19.622;2024-01-07T03:47:35;99017.19;;;8.14;100.00
80102;BME280;69407;44.966;19.622;2024-01-07T03:50:00;99015.31;;;8.16;100.00
80102;BME280;69407;44.966;19.622;2024-01-07T03:52:26;99021.31;;;8.18;100.00
80102;BME280;69407;44.966;19.622;2024-01-07T03:54:51;99021.88;;;8.09;100.00
80102;BME280;69407;44.966;19.622;2024-01-07T03:57:17;99007.78;;;8.10;100.00
80102;BME280;69407;44.966;19.622;2024-01-07T03:59:42;99015.75;;;8.08;100.00
80102;BME280;69407;44.966;19.622;2024-01-07T04:02:08;99014.16;;;8.06;100.00
80102;BME280;69407;44.966;19.622;2024-01-07T04:04:34;99016.16;;;8.02;100.00
80102;BME280;69407;44.966;19.622;2024-01-07T04:06:59;99023.38;;;7.99;100.00
80102;BME280;69407;44.966;19.622;2024-01-07T04:09:25;99016.41;;;7.98;100.00
80102;BME280;69407;44.966;19.622;2024-01-07T04:11:50;99024.59;;;7.93;100.00
80102;BME280;69407;44.966;19.622;2024-01-07T04:14:16;99021.22;;;7.91;100.00
80102;BME280;69407;44.966;19.622;2024-01-07T04:16:42;99028.47;;;8.02;100.00
80102;BME280;69407;44.966;19.622;2024-01-07T04:19:07;99033.34;;;7.93;100.00
80102;BME280;69407;44.966;19.622;2024-01-07T04:21:33;99029.09;;;7.91;100.00
80102;BME280;69407;44.966;19.622;2024-01-07T04:23:58;99038.41;;;7.97;100.00
80102;BME280;69407;44.966;19.622;2024-01-07T04:26:23;99036.06;;;7.92;100.00
80102;BME280;69407;44.966;19.622;2024-01-07T04:28:49;99041.88;;;7.97;100.00
80102;BME280;69407;44.966;19.622;2024-01-07T04:31:15;99039.25;;;7.97;100.00
80102;BME280;69407;44.966;19.622;2024-01-07T04:33:40;99047.63;;;7.89;100.00
80102;BME280;69407;44.966;19.622;2024-01-07T04:36:06;99046.88;;;8.02;100.00
80102;BME280;69407;44.966;19.622;2024-01-07T04:38:31;99053.41;;;7.80;100.00
80102;BME280;69407;44.966;19.622;2024-01-07T04:40:57;99056.50;;;7.87;100.00
80102;BME280;69407;44.966;19.622;2024-01-07T04:43:22;99053.81;;;7.88;100.00
80102;BME280;69407;44.966;19.622;2024-01-07T04:45:48;99039.16;;;7.99;100.00
80102;BME280;69407;44.966;19.622;2024-01-07T04:48:13;99047.63;;;8.04;100.00
80102;BME280;69407;44.966;19.622;2024-01-07T04:50:42;99042.38;;;8.04;100.00
80102;BME280;69407;44.966;19.622;2024-01-07T04:53:08;99036.91;;;8.07;100.00
80102;BME280;69407;44.966;19.622;2024-01-07T04:55:34;99038.59;;;8.08;100.00
80102;BME280;69407;44.966;19.622;2024-01-07T04:57:59;99049.50;;;8.16;100.00
80102;BME280;69407;44.966;19.622;2024-01-07T05:00:26;99050.75;;;8.25;100.00
80102;BME280;69407;44.966;19.622;2024-01-07T05:02:52;99046.97;;;8.29;100.00
80102;BME280;69407;44.966;19.622;2024-01-07T05:05:17;99052.88;;;8.18;100.00
80102;BME280;69407;44.966;19.622;2024-01-07T05:07:43;99057.41;;;8.16;100.00
80102;BME280;69407;44.966;19.622;2024-01-07T05:10:08;99046.38;;;8.09;100.00
80102;BME280;69407;44.966;19.622;2024-01-07T05:12:34;99050.81;;;8.09;100.00
80102;BME280;69407;44.966;19.622;2024-01-07T05:14:59;99048.75;;;8.00;100.00
80102;BME280;69407;44.966;19.622;2024-01-07T05:17:25;99052.69;;;8.07;100.00
80102;BME280;69407;44.966;19.622;2024-01-07T05:19:50;99053.34;;;8.10;100.00
80102;BME280;69407;44.966;19.622;2024-01-07T05:22:16;99055.03;;;8.11;100.00
80102;BME280;69407;44.966;19.622;2024-01-07T05:24:41;99057.50;;;8.14;100.00
80102;BME280;69407;44.966;19.622;2024-01-07T05:27:07;99053.84;;;8.17;100.00
80102;BME280;69407;44.966;19.622;2024-01-07T05:29:32;99056.16;;;8.21;100.00
80102;BME280;69407;44.966;19.622;2024-01-07T05:32:01;99051.09;;;8.18;100.00
80102;BME280;69407;44.966;19.622;2024-01-07T05:34:28;99051.66;;;8.23;100.00
80102;BME280;69407;44.966;19.622;2024-01-07T05:36:53;99054.13;;;8.27;100.00
80102;BME280;69407;44.966;19.622;2024-01-07T05:39:19;99056.47;;;8.31;100.00
80102;BME280;69407;44.966;19.622;2024-01-07T05:41:45;99068.88;;;8.29;100.00
80102;BME280;69407;44.966;19.622;2024-01-07T05:44:11;99059.84;;;8.33;100.00
80102;BME280;69407;44.966;19.622;2024-01-07T05:46:40;99063.09;;;8.38;100.00
80102;BME280;69407;44.966;19.622;2024-01-07T05:49:06;99062.03;;;8.41;100.00
80102;BME280;69407;44.966;19.622;2024-01-07T05:51:31;99063.59;;;8.29;100.00
80102;BME280;69407;44.966;19.622;2024-01-07T05:53:57;99054.50;;;8.35;100.00
80102;BME280;69407;44.966;19.622;2024-01-07T05:56:23;99057.22;;;8.33;100.00
80102;BME280;69407;44.966;19.622;2024-01-07T05:58:49;99060.34;;;8.40;100.00
80102;BME280;69407;44.966;19.622;2024-01-07T06:01:21;99063.53;;;8.45;100.00
80102;BME280;69407;44.966;19.622;2024-01-07T06:03:47;99068.34;;;8.52;100.00
80102;BME280;69407;44.966;19.622;2024-01-07T06:06:13;99075.66;;;8.47;100.00
80102;BME280;69407;44.966;19.622;2024-01-07T06:08:43;99077.91;;;8.54;100.00
80102;BME280;69407;44.966;19.622;2024-01-07T06:11:09;99089.09;;;8.57;100.00
80102;BME280;69407;44.966;19.622;2024-01-07T06:13:36;99078.97;;;8.51;100.00
80102;BME280;69407;44.966;19.622;2024-01-07T06:16:01;99080.16;;;8.45;100.00
80102;BME280;69407;44.966;19.622;2024-01-07T06:18:27;99089.00;;;8.44;100.00
80102;BME280;69407;44.966;19.622;2024-01-07T06:20:53;99094.38;;;8.43;100.00
80102;BME280;69407;44.966;19.622;2024-01-07T06:23:18;99099.53;;;8.44;100.00
80102;BME280;69407;44.966;19.622;2024-01-07T06:25:44;99106.25;;;8.50;100.00
80102;BME280;69407;44.966;19.622;2024-01-07T06:28:09;99102.28;;;8.43;100.00
80102;BME280;69407;44.966;19.622;2024-01-07T06:30:37;99101.91;;;8.49;100.00
80102;BME280;69407;44.966;19.622;2024-01-07T06:33:03;99105.00;;;8.41;100.00
80102;BME280;69407;44.966;19.622;2024-01-07T06:35:28;99103.56;;;8.36;100.00
80102;BME280;69407;44.966;19.622;2024-01-07T06:37:54;99113.66;;;8.43;100.00
80102;BME280;69407;44.966;19.622;2024-01-07T06:40:20;99124.19;;;8.43;100.00
80102;BME280;69407;44.966;19.622;2024-01-07T06:42:45;99131.63;;;8.21;100.00
80102;BME280;69407;44.966;19.622;2024-01-07T06:45:13;99136.16;;;8.19;100.00
80102;BME280;69407;44.966;19.622;2024-01-07T06:47:39;99137.66;;;8.23;100.00
80102;BME280;69407;44.966;19.622;2024-01-07T06:50:04;99139.31;;;8.10;100.00
80102;BME280;69407;44.966;19.622;2024-01-07T06:52:30;99139.59;;;8.05;100.00
80102;BME280;69407;44.966;19.622;2024-01-07T06:54:56;99151.03;;;7.90;100.00
80102;BME280;69407;44.966;19.622;2024-01-07T06:57:22;99158.59;;;7.80;100.00
80102;BME280;69407;44.966;19.622;2024-01-07T06:59:47;99160.28;;;7.81;100.00
80102;BME280;69407;44.966;19.622;2024-01-07T07:02:13;99160.63;;;7.75;100.00
80102;BME280;69407;44.966;19.622;2024-01-07T07:04:38;99165.22;;;7.87;100.00
80102;BME280;69407;44.966;19.622;2024-01-07T07:07:03;99174.63;;;7.91;100.00
80102;BME280;69407;44.966;19.622;2024-01-07T07:09:29;99172.41;;;8.00;100.00
80102;BME280;69407;44.966;19.622;2024-01-07T07:11:54;99174.69;;;8.20;100.00
80102;BME280;69407;44.966;19.622;2024-01-07T07:14:20;99173.09;;;8.32;100.00
80102;BME280;69407;44.966;19.622;2024-01-07T07:16:45;99171.41;;;8.31;100.00
80102;BME280;69407;44.966;19.622;2024-01-07T07:19:11;99173.72;;;8.37;100.00
80102;BME280;69407;44.966;19.622;2024-01-07T07:21:40;99175.66;;;8.33;100.00
80102;BME280;69407;44.966;19.622;2024-01-07T07:24:06;99182.53;;;8.36;100.00
80102;BME280;69407;44.966;19.622;2024-01-07T07:26:31;99179.91;;;8.36;100.00
80102;BME280;69407;44.966;19.622;2024-01-07T07:28:57;99178.22;;;8.35;100.00
80102;BME280;69407;44.966;19.622;2024-01-07T07:31:22;99186.38;;;8.30;100.00
80102;BME280;69407;44.966;19.622;2024-01-07T07:33:48;99187.25;;;8.45;100.00
80102;BME280;69407;44.966;19.622;2024-01-07T07:36:14;99187.75;;;8.21;100.00
80102;BME280;69407;44.966;19.622;2024-01-07T07:38:40;99187.66;;;8.39;100.00
80102;BME280;69407;44.966;19.622;2024-01-07T07:41:06;99188.25;;;8.28;100.00
80102;BME280;69407;44.966;19.622;2024-01-07T07:43:33;99195.84;;;8.33;100.00
80102;BME280;69407;44.966;19.622;2024-01-07T07:45:58;99198.59;;;8.31;100.00
80102;BME280;69407;44.966;19.622;2024-01-07T07:48:25;99201.75;;;8.38;100.00
80102;BME280;69407;44.966;19.622;2024-01-07T07:50:51;99202.81;;;8.34;100.00
80102;BME280;69407;44.966;19.622;2024-01-07T07:53:17;99208.25;;;8.31;100.00
80102;BME280;69407;44.966;19.622;2024-01-07T07:55:42;99205.69;;;8.45;100.00
80102;BME280;69407;44.966;19.622;2024-01-07T07:58:07;99203.16;;;8.43;100.00
80102;BME280;69407;44.966;19.622;2024-01-07T08:00:33;99204.88;;;8.29;100.00
80102;BME280;69407;44.966;19.622;2024-01-07T08:02:59;99214.91;;;8.22;100.00
80102;BME280;69407;44.966;19.622;2024-01-07T08:05:24;99211.34;;;8.23;100.00
80102;BME280;69407;44.966;19.622;2024-01-07T08:07:50;99216.31;;;8.13;100.00
80102;BME280;69407;44.966;19.622;2024-01-07T08:10:15;99220.72;;;8.13;100.00
80102;BME280;69407;44.966;19.622;2024-01-07T08:12:41;99223.13;;;8.02;100.00
80102;BME280;69407;44.966;19.622;2024-01-07T08:15:07;99229.25;;;7.86;100.00
80102;BME280;69407;44.966;19.622;2024-01-07T08:17:33;99237.56;;;7.94;100.00
80102;BME280;69407;44.966;19.622;2024-01-07T08:19:58;99243.84;;;7.92;100.00
80102;BME280;69407;44.966;19.622;2024-01-07T08:22:24;99238.69;;;7.90;100.00
80102;BME280;69407;44.966;19.622;2024-01-07T08:24:50;99238.16;;;8.00;100.00
80102;BME280;69407;44.966;19.622;2024-01-07T08:27:15;99239.25;;;7.96;100.00
80102;BME280;69407;44.966;19.622;2024-01-07T08:29:44;99242.25;;;8.19;100.00
80102;BME280;69407;44.966;19.622;2024-01-07T08:32:09;99236.38;;;8.30;100.00
80102;BME280;69407;44.966;19.622;2024-01-07T08:34:35;99235.03;;;8.23;100.00
80102;BME280;69407;44.966;19.622;2024-01-07T08:37:01;99235.53;;;8.00;100.00
80102;BME280;69407;44.966;19.622;2024-01-07T08:39:26;99237.03;;;8.04;100.00
80102;BME280;69407;44.966;19.622;2024-01-07T08:41:54;99237.84;;;8.20;100.00
80102;BME280;69407;44.966;19.622;2024-01-07T08:44:19;99224.41;;;8.40;100.00
80102;BME280;69407;44.966;19.622;2024-01-07T08:46:45;99234.94;;;8.55;100.00
80102;BME280;69407;44.966;19.622;2024-01-07T08:49:11;99231.03;;;8.76;100.00
80102;BME280;69407;44.966;19.622;2024-01-07T08:51:36;99229.66;;;8.85;100.00
80102;BME280;69407;44.966;19.622;2024-01-07T08:54:02;99228.22;;;8.79;100.00
80102;BME280;69407;44.966;19.622;2024-01-07T08:56:29;99235.47;;;8.90;100.00
80102;BME280;69407;44.966;19.622;2024-01-07T08:58:54;99232.16;;;9.15;100.00
80102;BME280;69407;44.966;19.622;2024-01-07T09:01:20;99237.25;;;9.18;100.00
80102;BME280;69407;44.966;19.622;2024-01-07T09:03:45;99226.53;;;9.21;100.00
80102;BME280;69407;44.966;19.622;2024-01-07T09:06:11;99225.53;;;9.50;100.00
80102;BME280;69407;44.966;19.622;2024-01-07T09:08:36;99227.94;;;9.12;100.00
80102;BME280;69407;44.966;19.622;2024-01-07T09:11:05;99227.19;;;9.24;100.00
80102;BME280;69407;44.966;19.622;2024-01-07T09:13:31;99221.50;;;9.30;100.00
80102;BME280;69407;44.966;19.622;2024-01-07T09:15:57;99222.09;;;9.35;100.00
80102;BME280;69407;44.966;19.622;2024-01-07T09:18:23;99227.31;;;9.50;100.00
80102;BME280;69407;44.966;19.622;2024-01-07T09:20:48;99222.47;;;9.71;100.00
80102;BME280;69407;44.966;19.622;2024-01-07T09:23:14;99232.91;;;9.31;100.00
80102;BME280;69407;44.966;19.622;2024-01-07T09:25:41;99239.50;;;9.38;100.00
80102;BME280;69407;44.966;19.622;2024-01-07T09:28:07;99226.41;;;9.36;100.00
80102;BME280;69407;44.966;19.622;2024-01-07T09:30:32;99233.09;;;9.28;100.00
80102;BME280;69407;44.966;19.622;2024-01-07T09:32:58;99236.69;;;9.13;100.00
80102;BME280;69407;44.966;19.622;2024-01-07T09:35:23;99239.34;;;9.13;100.00
80102;BME280;69407;44.966;19.622;2024-01-07T09:37:49;99232.91;;;9.31;100.00
80102;BME280;69407;44.966;19.622;2024-01-07T09:40:18;99234.91;;;9.13;100.00
80102;BME280;69407;44.966;19.622;2024-01-07T09:42:44;99239.69;;;9.06;100.00
80102;BME280;69407;44.966;19.622;2024-01-07T09:45:12;99236.97;;;9.36;100.00
80102;BME280;69407;44.966;19.622;2024-01-07T09:47:39;99236.13;;;9.07;100.00
80102;BME280;69407;44.966;19.622;2024-01-07T09:50:06;99243.47;;;9.02;100.00
80102;BME280;69407;44.966;19.622;2024-01-07T09:52:33;99241.00;;;9.28;100.00
80102;BME280;69407;44.966;19.622;2024-01-07T09:55:02;99233.16;;;9.40;100.00
80102;BME280;69407;44.966;19.622;2024-01-07T09:57:29;99231.69;;;9.08;100.00
80102;BME280;69407;44.966;19.622;2024-01-07T09:59:55;99245.91;;;8.77;100.00
80102;BME280;69407;44.966;19.622;2024-01-07T10:02:20;99252.84;;;8.64;100.00
80102;BME280;69407;44.966;19.622;2024-01-07T10:04:48;99248.84;;;8.42;100.00
80102;BME280;69407;44.966;19.622;2024-01-07T10:07:15;99244.06;;;8.49;100.00
80102;BME280;69407;44.966;19.622;2024-01-07T10:09:40;99245.38;;;8.56;100.00
80102;BME280;69407;44.966;19.622;2024-01-07T10:12:08;99242.13;;;8.67;100.00
80102;BME280;69407;44.966;19.622;2024-01-07T10:14:33;99235.41;;;8.47;100.00
80102;BME280;69407;44.966;19.622;2024-01-07T10:16:59;99239.16;;;8.43;100.00
80102;BME280;69407;44.966;19.622;2024-01-07T10:19:25;99249.34;;;8.49;100.00
80102;BME280;69407;44.966;19.622;2024-01-07T10:22:00;99244.75;;;8.81;100.00
80102;BME280;69407;44.966;19.622;2024-01-07T10:24:26;99244.19;;;8.62;100.00
80102;BME280;69407;44.966;19.622;2024-01-07T10:26:52;99244.19;;;8.62;100.00
80102;BME280;69407;44.966;19.622;2024-01-07T10:29:17;99250.03;;;8.67;100.00
80102;BME280;69407;44.966;19.622;2024-01-07T10:31:43;99241.38;;;8.79;100.00
80102;BME280;69407;44.966;19.622;2024-01-07T10:34:09;99244.84;;;8.65;100.00
80102;BME280;69407;44.966;19.622;2024-01-07T10:36:35;99243.91;;;8.80;100.00
80102;BME280;69407;44.966;19.622;2024-01-07T10:39:02;99242.13;;;8.67;100.00
80102;BME280;69407;44.966;19.622;2024-01-07T10:41:28;99237.31;;;8.59;100.00
80102;BME280;69407;44.966;19.622;2024-01-07T10:43:55;99231.41;;;8.70;100.00
80102;BME280;69407;44.966;19.622;2024-01-07T10:46:21;99238.75;;;9.07;100.00
80102;BME280;69407;44.966;19.622;2024-01-07T10:49:00;99238.38;;;8.99;100.00
80102;BME280;69407;44.966;19.622;2024-01-07T10:51:29;99232.91;;;9.17;100.00
80102;BME280;69407;44.966;19.622;2024-01-07T10:53:56;99232.28;;;9.13;100.00
80102;BME280;69407;44.966;19.622;2024-01-07T10:56:23;99232.72;;;9.20;100.00
80102;BME280;69407;44.966;19.622;2024-01-07T10:58:52;99234.81;;;9.00;100.00
80102;BME280;69407;44.966;19.622;2024-01-07T11:01:19;99236.81;;;8.97;100.00
80102;BME280;69407;44.966;19.622;2024-01-07T11:03:57;99230.09;;;9.34;100.00
80102;BME280;69407;44.966;19.622;2024-01-07T11:06:35;99225.41;;;9.10;100.00
80102;BME280;69407;44.966;19.622;2024-01-07T11:11:38;99231.78;;;8.92;100.00
80102;BME280;69407;44.966;19.622;2024-01-07T11:14:39;99224.16;;;9.16;100.00
80102;BME280;69407;44.966;19.622;2024-01-07T11:17:08;99233.56;;;9.34;100.00
80102;BME280;69407;44.966;19.622;2024-01-07T11:19:38;99234.03;;;9.27;100.00
80102;BME280;69407;44.966;19.622;2024-01-07T11:22:26;99229.59;;;9.42;100.00
80102;BME280;69407;44.966;19.622;2024-01-07T11:24:56;99234.66;;;9.45;100.00
80102;BME280;69407;44.966;19.622;2024-01-07T11:27:22;99245.53;;;9.67;100.00
80102;BME280;69407;44.966;19.622;2024-01-07T11:30:01;99237.53;;;9.68;100.00
80102;BME280;69407;44.966;19.622;2024-01-07T11:32:30;99229.34;;;9.73;100.00
80102;BME280;69407;44.966;19.622;2024-01-07T11:34:55;99239.00;;;9.31;100.00
80102;BME280;69407;44.966;19.622;2024-01-07T11:37:23;99232.72;;;9.20;100.00
80102;BME280;69407;44.966;19.622;2024-01-07T11:39:54;99231.41;;;9.27;100.00
80102;BME280;69407;44.966;19.622;2024-01-07T11:42:20;99225.31;;;9.12;100.00
80102;BME280;69407;44.966;19.622;2024-01-07T11:44:49;99229.91;;;9.08;100.00
80102;BME280;69407;44.966;19.622;2024-01-07T11:47:16;99226.97;;;9.27;100.00
80102;BME280;69407;44.966;19.622;2024-01-07T11:49:41;99235.91;;;9.39;100.00
80102;BME280;69407;44.966;19.622;2024-01-07T11:52:08;99228.59;;;9.57;100.00
80102;BME280;69407;44.966;19.622;2024-01-07T11:54:34;99232.56;;;9.23;100.00
80102;BME280;69407;44.966;19.622;2024-01-07T11:57:01;99227.09;;;9.12;100.00
80102;BME280;69407;44.966;19.622;2024-01-07T11:59:29;99233.50;;;9.22;100.00
80102;BME280;69407;44.966;19.622;2024-01-07T12:01:54;99240.53;;;9.35;100.00
80102;BME280;69407;44.966;19.622;2024-01-07T12:04:20;99239.50;;;9.38;100.00
80102;BME280;69407;44.966;19.622;2024-01-07T12:06:47;99237.91;;;9.35;100.00
80102;BME280;69407;44.966;19.622;2024-01-07T12:09:13;99231.19;;;9.58;100.00
80102;BME280;69407;44.966;19.622;2024-01-07T12:11:40;99232.63;;;9.35;100.00
80102;BME280;69407;44.966;19.622;2024-01-07T12:14:07;99238.00;;;9.34;100.00
80102;BME280;69407;44.966;19.622;2024-01-07T12:16:34;99233.78;;;9.73;100.00
80102;BME280;69407;44.966;19.622;2024-01-07T12:18:59;99234.34;;;9.63;100.00
80102;BME280;69407;44.966;19.622;2024-01-07T12:21:25;99231.03;;;10.01;100.00
80102;BME280;69407;44.966;19.622;2024-01-07T12:23:52;99238.19;;;10.26;100.00
80102;BME280;69407;44.966;19.622;2024-01-07T12:26:18;99235.91;;;10.34;100.00
80102;BME280;69407;44.966;19.622;2024-01-07T12:28:45;99240.28;;;10.21;100.00
80102;BME280;69407;44.966;19.622;2024-01-07T12:31:17;99234.94;;;10.22;100.00
80102;BME280;69407;44.966;19.622;2024-01-07T12:33:42;99237.38;;;10.38;100.00
80102;BME280;69407;44.966;19.622;2024-01-07T12:36:08;99239.16;;;9.98;100.00
80102;BME280;69407;44.966;19.622;2024-01-07T12:38:36;99241.34;;;10.58;100.00
80102;BME280;69407;44.966;19.622;2024-01-07T12:41:02;99240.06;;;10.76;100.00
80102;BME280;69407;44.966;19.622;2024-01-07T12:43:28;99229.91;;;11.08;100.00
80102;BME280;69407;44.966;19.622;2024-01-07T12:45:53;99239.75;;;10.68;100.00
80102;BME280;69407;44.966;19.622;2024-01-07T12:48:20;99240.81;;;11.04;100.00